sensor_id;sensor_type;location;lat;lon;timestamp;P1;durP1;ratioP1;P2;durP2;ratioP2
21030;SDS011;61072;47.808;7.636;2023-05-14T00:00:03;4.45;;;3.72;;
21030;SDS011;61072;47.808;7.636;2023-05-14T00:02:31;7.20;;;3.75;;
21030;SDS011;61072;47.808;7.636;2023-05-14T00:04:58;4.25;;;3.85;;
21030;SDS011;61072;47.808;7.636;2023-05-14T00:07:25;6.85;;;3.55;;
21030;SDS011;61072;47.808;7.636;2023-05-14T00:09:56;6.43;;;3.50;;
21030;SDS011;61072;47.808;7.636;2023-05-14T00:12:23;3.75;;;3.03;;
21030;SDS011;61072;47.808;7.636;2023-05-14T00:14:51;3.67;;;3.00;;
21030;SDS011;61072;47.808;7.636;2023-05-14T00:17:19;5.47;;;3.20;;
21030;SDS011;61072;47.808;7.636;2023-05-14T00:19:45;5.25;;;3.28;;
21030;SDS011;61072;47.808;7.636;2023-05-14T00:22:12;3.20;;;2.90;;
21030;SDS011;61072;47.808;7.636;2023-05-14T00:24:39;3.40;;;3.10;;
21030;SDS011;61072;47.808;7.636;2023-05-14T00:27:06;5.45;;;3.28;;
21030;SDS011;61072;47.808;7.636;2023-05-14T00:29:32;4.82;;;4.05;;
21030;SDS011;61072;47.808;7.636;2023-05-14T00:31:59;7.05;;;4.53;;
21030;SDS011;61072;47.808;7.636;2023-05-14T00:34:26;3.80;;;3.40;;
21030;SDS011;61072;47.808;7.636;2023-05-14T00:36:52;4.45;;;4.00;;
21030;SDS011;61072;47.808;7.636;2023-05-14T00:39:19;6.22;;;4.10;;
21030;SDS011;61072;47.808;7.636;2023-05-14T00:41:46;6.10;;;3.72;;
21030;SDS011;61072;47.808;7.636;2023-05-14T00:44:12;4.18;;;3.28;;
21030;SDS011;61072;47.808;7.636;2023-05-14T00:46:39;4.72;;;3.92;;
21030;SDS011;61072;47.808;7.636;2023-05-14T00:49:06;6.30;;;4.28;;
21030;SDS011;61072;47.808;7.636;2023-05-14T00:51:33;4.63;;;3.58;;
21030;SDS011;61072;47.808;7.636;2023-05-14T00:54:00;4.90;;;3.92;;
21030;SDS011;61072;47.808;7.636;2023-05-14T00:56:27;4.93;;;3.70;;
21030;SDS011;61072;47.808;7.636;2023-05-14T00:58:54;6.50;;;3.70;;
21030;SDS011;61072;47.808;7.636;2023-05-14T01:01:20;4.05;;;3.17;;
21030;SDS011;61072;47.808;7.636;2023-05-14T01:03:47;4.03;;;3.60;;
21030;SDS011;61072;47.808;7.636;2023-05-14T01:06:16;4.00;;;3.60;;
21030;SDS011;61072;47.808;7.636;2023-05-14T01:17:27;8.07;;;4.13;;
21030;SDS011;61072;47.808;7.636;2023-05-14T01:19:57;3.63;;;3.33;;
21030;SDS011;61072;47.808;7.636;2023-05-14T01:22:25;5.03;;;3.70;;
21030;SDS011;61072;47.808;7.636;2023-05-14T01:24:52;5.10;;;3.92;;
21030;SDS011;61072;47.808;7.636;2023-05-14T01:27:28;5.82;;;4.10;;
21030;SDS011;61072;47.808;7.636;2023-05-14T01:30:20;5.45;;;3.60;;
21030;SDS011;61072;47.808;7.636;2023-05-14T01:32:55;5.63;;;4.32;;
21030;SDS011;61072;47.808;7.636;2023-05-14T01:35:26;6.15;;;4.30;;
21030;SDS011;61072;47.808;7.636;2023-05-14T01:37:54;5.55;;;4.13;;
21030;SDS011;61072;47.808;7.636;2023-05-14T01:40:23;4.10;;;3.70;;
21030;SDS011;61072;47.808;7.636;2023-05-14T01:42:51;10.02;;;4.55;;
21030;SDS011;61072;47.808;7.636;2023-05-14T01:45:19;5.00;;;4.28;;
21030;SDS011;61072;47.808;7.636;2023-05-14T01:47:46;5.32;;;4.30;;
21030;SDS011;61072;47.808;7.636;2023-05-14T01:50:13;7.63;;;4.88;;
21030;SDS011;61072;47.808;7.636;2023-05-14T01:52:40;5.78;;;4.57;;
21030;SDS011;61072;47.808;7.636;2023-05-14T01:55:07;5.65;;;5.05;;
21030;SDS011;61072;47.808;7.636;2023-05-14T01:57:34;5.60;;;4.72;;
21030;SDS011;61072;47.808;7.636;2023-05-14T02:00:01;6.05;;;4.60;;
21030;SDS011;61072;47.808;7.636;2023-05-14T02:02:29;6.93;;;4.57;;
21030;SDS011;61072;47.808;7.636;2023-05-14T02:04:56;7.03;;;4.10;;
21030;SDS011;61072;47.808;7.636;2023-05-14T02:07:22;8.60;;;4.90;;
21030;SDS011;61072;47.808;7.636;2023-05-14T02:09:49;5.45;;;4.80;;
21030;SDS011;61072;47.808;7.636;2023-05-14T02:12:16;17.63;;;4.72;;
21030;SDS011;61072;47.808;7.636;2023-05-14T02:14:43;7.82;;;4.70;;
21030;SDS011;61072;47.808;7.636;2023-05-14T02:17:10;5.70;;;4.47;;
21030;SDS011;61072;47.808;7.636;2023-05-14T02:19:36;6.93;;;5.57;;
21030;SDS011;61072;47.808;7.636;2023-05-14T02:22:03;7.65;;;5.10;;
21030;SDS011;61072;47.808;7.636;2023-05-14T02:24:30;4.32;;;3.92;;
21030;SDS011;61072;47.808;7.636;2023-05-14T02:26:57;8.05;;;4.53;;
21030;SDS011;61072;47.808;7.636;2023-05-14T02:29:26;4.43;;;3.97;;
21030;SDS011;61072;47.808;7.636;2023-05-14T02:31:53;6.88;;;4.30;;
21030;SDS011;61072;47.808;7.636;2023-05-14T02:34:20;7.03;;;4.38;;
21030;SDS011;61072;47.808;7.636;2023-05-14T02:36:46;7.07;;;4.22;;
21030;SDS011;61072;47.808;7.636;2023-05-14T02:39:13;4.97;;;4.10;;
21030;SDS011;61072;47.808;7.636;2023-05-14T02:41:40;7.88;;;4.82;;
21030;SDS011;61072;47.808;7.636;2023-05-14T02:44:07;7.03;;;4.47;;
21030;SDS011;61072;47.808;7.636;2023-05-14T02:46:33;6.25;;;4.53;;
21030;SDS011;61072;47.808;7.636;2023-05-14T02:49:00;7.55;;;4.63;;
21030;SDS011;61072;47.808;7.636;2023-05-14T02:51:28;7.05;;;3.80;;
21030;SDS011;61072;47.808;7.636;2023-05-14T02:53:54;7.53;;;3.72;;
21030;SDS011;61072;47.808;7.636;2023-05-14T02:56:21;5.82;;;4.38;;
21030;SDS011;61072;47.808;7.636;2023-05-14T02:58:48;5.40;;;4.38;;
21030;SDS011;61072;47.808;7.636;2023-05-14T03:01:14;4.93;;;4.38;;
21030;SDS011;61072;47.808;7.636;2023-05-14T03:03:44;7.20;;;4.53;;
21030;SDS011;61072;47.808;7.636;2023-05-14T03:06:11;4.30;;;3.80;;
21030;SDS011;61072;47.808;7.636;2023-05-14T03:08:38;6.15;;;4.32;;
21030;SDS011;61072;47.808;7.636;2023-05-14T03:11:04;8.68;;;4.78;;
21030;SDS011;61072;47.808;7.636;2023-05-14T03:13:32;6.70;;;4.40;;
21030;SDS011;61072;47.808;7.636;2023-05-14T03:15:58;5.25;;;3.83;;
21030;SDS011;61072;47.808;7.636;2023-05-14T03:18:25;4.70;;;4.20;;
21030;SDS011;61072;47.808;7.636;2023-05-14T03:20:53;4.10;;;3.70;;
21030;SDS011;61072;47.808;7.636;2023-05-14T03:23:20;4.72;;;3.95;;
21030;SDS011;61072;47.808;7.636;2023-05-14T03:25:47;6.95;;;4.05;;
21030;SDS011;61072;47.808;7.636;2023-05-14T03:28:13;4.45;;;3.92;;
21030;SDS011;61072;47.808;7.636;2023-05-14T03:30:40;7.63;;;4.00;;
21030;SDS011;61072;47.808;7.636;2023-05-14T03:33:07;4.30;;;3.60;;
21030;SDS011;61072;47.808;7.636;2023-05-14T03:35:34;4.05;;;3.65;;
21030;SDS011;61072;47.808;7.636;2023-05-14T03:38:00;4.40;;;4.00;;
21030;SDS011;61072;47.808;7.636;2023-05-14T03:40:27;7.15;;;3.85;;
21030;SDS011;61072;47.808;7.636;2023-05-14T03:42:54;4.70;;;4.03;;
21030;SDS011;61072;47.808;7.636;2023-05-14T03:45:21;3.97;;;3.58;;
21030;SDS011;61072;47.808;7.636;2023-05-14T03:47:48;6.82;;;4.80;;
21030;SDS011;61072;47.808;7.636;2023-05-14T03:50:15;6.10;;;4.80;;
21030;SDS011;61072;47.808;7.636;2023-05-14T03:52:41;6.82;;;5.80;;
21030;SDS011;61072;47.808;7.636;2023-05-14T03:55:09;6.53;;;5.70;;
21030;SDS011;61072;47.808;7.636;2023-05-14T03:57:36;9.10;;;5.13;;
21030;SDS011;61072;47.808;7.636;2023-05-14T04:00:03;6.75;;;5.03;;
21030;SDS011;61072;47.808;7.636;2023-05-14T04:02:30;5.47;;;4.70;;
21030;SDS011;61072;47.808;7.636;2023-05-14T04:04:56;7.47;;;4.95;;
21030;SDS011;61072;47.808;7.636;2023-05-14T04:07:23;5.00;;;4.60;;
21030;SDS011;61072;47.808;7.636;2023-05-14T04:09:50;5.22;;;4.63;;
21030;SDS011;61072;47.808;7.636;2023-05-14T04:12:17;6.07;;;4.68;;
21030;SDS011;61072;47.808;7.636;2023-05-14T04:14:44;4.97;;;4.35;;
21030;SDS011;61072;47.808;7.636;2023-05-14T04:17:10;4.57;;;3.58;;
21030;SDS011;61072;47.808;7.636;2023-05-14T04:19:37;3.95;;;3.22;;
21030;SDS011;61072;47.808;7.636;2023-05-14T04:22:05;5.22;;;3.63;;
21030;SDS011;61072;47.808;7.636;2023-05-14T04:24:32;5.22;;;3.80;;
21030;SDS011;61072;47.808;7.636;2023-05-14T04:26:59;3.95;;;3.55;;
21030;SDS011;61072;47.808;7.636;2023-05-14T04:29:25;5.75;;;3.55;;
21030;SDS011;61072;47.808;7.636;2023-05-14T04:31:52;5.13;;;4.10;;
21030;SDS011;61072;47.808;7.636;2023-05-14T04:34:19;4.57;;;4.18;;
21030;SDS011;61072;47.808;7.636;2023-05-14T04:36:46;5.13;;;4.00;;
21030;SDS011;61072;47.808;7.636;2023-05-14T04:39:12;6.10;;;4.13;;
21030;SDS011;61072;47.808;7.636;2023-05-14T04:41:40;5.72;;;4.20;;
21030;SDS011;61072;47.808;7.636;2023-05-14T04:44:07;6.80;;;4.30;;
21030;SDS011;61072;47.808;7.636;2023-05-14T04:46:34;4.05;;;3.65;;
21030;SDS011;61072;47.808;7.636;2023-05-14T04:49:01;5.22;;;4.43;;
21030;SDS011;61072;47.808;7.636;2023-05-14T04:51:27;5.72;;;4.38;;
21030;SDS011;61072;47.808;7.636;2023-05-14T04:53:54;5.13;;;4.50;;
21030;SDS011;61072;47.808;7.636;2023-05-14T04:56:21;6.15;;;5.55;;
21030;SDS011;61072;47.808;7.636;2023-05-14T04:58:48;8.30;;;5.53;;
21030;SDS011;61072;47.808;7.636;2023-05-14T05:01:14;7.03;;;5.30;;
21030;SDS011;61072;47.808;7.636;2023-05-14T05:03:41;6.25;;;5.00;;
21030;SDS011;61072;47.808;7.636;2023-05-14T05:06:08;4.57;;;4.13;;
21030;SDS011;61072;47.808;7.636;2023-05-14T05:08:35;6.65;;;4.53;;
21030;SDS011;61072;47.808;7.636;2023-05-14T05:11:02;7.30;;;4.30;;
21030;SDS011;61072;47.808;7.636;2023-05-14T05:13:29;6.20;;;5.20;;
21030;SDS011;61072;47.808;7.636;2023-05-14T05:15:57;5.03;;;4.18;;
21030;SDS011;61072;47.808;7.636;2023-05-14T05:18:23;5.57;;;4.20;;
21030;SDS011;61072;47.808;7.636;2023-05-14T05:20:50;5.45;;;4.90;;
21030;SDS011;61072;47.808;7.636;2023-05-14T05:23:17;5.07;;;4.55;;
21030;SDS011;61072;47.808;7.636;2023-05-14T05:25:44;6.13;;;4.57;;
21030;SDS011;61072;47.808;7.636;2023-05-14T05:28:10;5.03;;;4.53;;
21030;SDS011;61072;47.808;7.636;2023-05-14T05:30:38;5.35;;;4.40;;
21030;SDS011;61072;47.808;7.636;2023-05-14T05:33:05;7.00;;;4.68;;
21030;SDS011;61072;47.808;7.636;2023-05-14T05:35:32;4.18;;;3.80;;
21030;SDS011;61072;47.808;7.636;2023-05-14T05:37:59;11.65;;;4.75;;
21030;SDS011;61072;47.808;7.636;2023-05-14T05:40:27;7.35;;;5.00;;
21030;SDS011;61072;47.808;7.636;2023-05-14T05:42:53;6.50;;;4.53;;
21030;SDS011;61072;47.808;7.636;2023-05-14T05:45:20;10.02;;;4.57;;
21030;SDS011;61072;47.808;7.636;2023-05-14T05:47:47;4.95;;;4.40;;
21030;SDS011;61072;47.808;7.636;2023-05-14T05:50:14;4.88;;;4.00;;
21030;SDS011;61072;47.808;7.636;2023-05-14T05:52:41;4.55;;;4.07;;
21030;SDS011;61072;47.808;7.636;2023-05-14T05:55:08;4.45;;;3.88;;
21030;SDS011;61072;47.808;7.636;2023-05-14T05:57:34;4.80;;;3.42;;
21030;SDS011;61072;47.808;7.636;2023-05-14T06:00:01;10.07;;;3.92;;
21030;SDS011;61072;47.808;7.636;2023-05-14T06:02:38;4.57;;;3.70;;
21030;SDS011;61072;47.808;7.636;2023-05-14T06:05:06;4.70;;;3.67;;
21030;SDS011;61072;47.808;7.636;2023-05-14T06:07:34;4.40;;;3.88;;
21030;SDS011;61072;47.808;7.636;2023-05-14T06:10:01;6.18;;;3.67;;
21030;SDS011;61072;47.808;7.636;2023-05-14T06:12:28;4.57;;;4.18;;
21030;SDS011;61072;47.808;7.636;2023-05-14T06:14:55;6.15;;;5.20;;
21030;SDS011;61072;47.808;7.636;2023-05-14T06:17:23;4.97;;;4.45;;
21030;SDS011;61072;47.808;7.636;2023-05-14T06:19:50;4.72;;;3.70;;
21030;SDS011;61072;47.808;7.636;2023-05-14T06:22:17;3.70;;;3.33;;
21030;SDS011;61072;47.808;7.636;2023-05-14T06:24:44;5.13;;;4.05;;
21030;SDS011;61072;47.808;7.636;2023-05-14T06:27:11;5.88;;;4.00;;
21030;SDS011;61072;47.808;7.636;2023-05-14T06:29:38;4.18;;;3.78;;
21030;SDS011;61072;47.808;7.636;2023-05-14T06:32:04;5.18;;;3.33;;
21030;SDS011;61072;47.808;7.636;2023-05-14T06:34:32;5.22;;;3.33;;
21030;SDS011;61072;47.808;7.636;2023-05-14T06:36:59;5.10;;;3.13;;
21030;SDS011;61072;47.808;7.636;2023-05-14T06:39:27;6.20;;;3.30;;
21030;SDS011;61072;47.808;7.636;2023-05-14T06:41:54;4.45;;;3.13;;
21030;SDS011;61072;47.808;7.636;2023-05-14T06:44:21;5.95;;;4.13;;
21030;SDS011;61072;47.808;7.636;2023-05-14T06:46:48;4.30;;;3.90;;
21030;SDS011;61072;47.808;7.636;2023-05-14T06:49:14;4.60;;;3.50;;
21030;SDS011;61072;47.808;7.636;2023-05-14T06:51:41;5.82;;;3.33;;
21030;SDS011;61072;47.808;7.636;2023-05-14T06:54:08;3.65;;;3.35;;
21030;SDS011;61072;47.808;7.636;2023-05-14T06:56:35;5.15;;;4.43;;
21030;SDS011;61072;47.808;7.636;2023-05-14T06:59:01;4.13;;;3.67;;
21030;SDS011;61072;47.808;7.636;2023-05-14T07:01:28;4.70;;;3.63;;
21030;SDS011;61072;47.808;7.636;2023-05-14T07:03:55;5.95;;;3.58;;
21030;SDS011;61072;47.808;7.636;2023-05-14T07:06:22;4.75;;;3.60;;
21030;SDS011;61072;47.808;7.636;2023-05-14T07:08:49;4.05;;;3.63;;
21030;SDS011;61072;47.808;7.636;2023-05-14T07:11:16;4.88;;;3.80;;
21030;SDS011;61072;47.808;7.636;2023-05-14T07:13:42;5.25;;;3.72;;
21030;SDS011;61072;47.808;7.636;2023-05-14T07:16:09;5.68;;;3.42;;
21030;SDS011;61072;47.808;7.636;2023-05-14T07:18:36;5.88;;;3.50;;
21030;SDS011;61072;47.808;7.636;2023-05-14T07:21:03;5.65;;;3.58;;
21030;SDS011;61072;47.808;7.636;2023-05-14T07:23:32;4.15;;;3.75;;
21030;SDS011;61072;47.808;7.636;2023-05-14T07:26:01;6.18;;;4.00;;
21030;SDS011;61072;47.808;7.636;2023-05-14T07:28:30;5.38;;;3.63;;
21030;SDS011;61072;47.808;7.636;2023-05-14T07:30:57;5.57;;;4.13;;
21030;SDS011;61072;47.808;7.636;2023-05-14T07:33:24;5.25;;;4.63;;
21030;SDS011;61072;47.808;7.636;2023-05-14T07:35:52;4.10;;;3.70;;
21030;SDS011;61072;47.808;7.636;2023-05-14T07:38:19;4.53;;;4.13;;
21030;SDS011;61072;47.808;7.636;2023-05-14T07:40:46;6.28;;;4.88;;
21030;SDS011;61072;47.808;7.636;2023-05-14T07:43:13;5.07;;;4.60;;
21030;SDS011;61072;47.808;7.636;2023-05-14T07:45:39;5.75;;;4.80;;
21030;SDS011;61072;47.808;7.636;2023-05-14T07:48:06;5.50;;;5.00;;
21030;SDS011;61072;47.808;7.636;2023-05-14T07:50:33;6.65;;;4.80;;
21030;SDS011;61072;47.808;7.636;2023-05-14T07:53:00;5.60;;;4.35;;
21030;SDS011;61072;47.808;7.636;2023-05-14T07:55:27;5.15;;;4.25;;
21030;SDS011;61072;47.808;7.636;2023-05-14T07:57:54;5.80;;;4.57;;
21030;SDS011;61072;47.808;7.636;2023-05-14T08:00:21;6.10;;;4.65;;
21030;SDS011;61072;47.808;7.636;2023-05-14T08:02:48;6.88;;;4.65;;
21030;SDS011;61072;47.808;7.636;2023-05-14T08:05:16;6.95;;;4.93;;
21030;SDS011;61072;47.808;7.636;2023-05-14T08:07:43;5.65;;;4.85;;
21030;SDS011;61072;47.808;7.636;2023-05-14T08:10:10;5.57;;;4.72;;
21030;SDS011;61072;47.808;7.636;2023-05-14T08:12:37;6.90;;;4.95;;
21030;SDS011;61072;47.808;7.636;2023-05-14T08:15:04;6.03;;;5.30;;
21030;SDS011;61072;47.808;7.636;2023-05-14T08:17:32;6.25;;;5.30;;
21030;SDS011;61072;47.808;7.636;2023-05-14T08:19:59;7.22;;;5.60;;
21030;SDS011;61072;47.808;7.636;2023-05-14T08:22:26;6.75;;;5.25;;
21030;SDS011;61072;47.808;7.636;2023-05-14T08:24:53;5.32;;;4.82;;
21030;SDS011;61072;47.808;7.636;2023-05-14T08:27:20;7.43;;;5.68;;
21030;SDS011;61072;47.808;7.636;2023-05-14T08:29:48;5.88;;;5.20;;
21030;SDS011;61072;47.808;7.636;2023-05-14T08:32:14;7.70;;;5.07;;
21030;SDS011;61072;47.808;7.636;2023-05-14T08:34:49;5.75;;;5.18;;
21030;SDS011;61072;47.808;7.636;2023-05-14T08:37:17;8.02;;;5.45;;
21030;SDS011;61072;47.808;7.636;2023-05-14T08:39:43;5.63;;;5.13;;
21030;SDS011;61072;47.808;7.636;2023-05-14T08:42:11;6.35;;;5.63;;
21030;SDS011;61072;47.808;7.636;2023-05-14T08:44:43;8.30;;;5.38;;
21030;SDS011;61072;47.808;7.636;2023-05-14T08:47:14;5.20;;;4.70;;
21030;SDS011;61072;47.808;7.636;2023-05-14T08:49:45;5.90;;;5.37;;
21030;SDS011;61072;47.808;7.636;2023-05-14T08:52:14;5.72;;;5.20;;
21030;SDS011;61072;47.808;7.636;2023-05-14T08:54:43;6.15;;;5.28;;
21030;SDS011;61072;47.808;7.636;2023-05-14T08:57:11;6.57;;;5.40;;
21030;SDS011;61072;47.808;7.636;2023-05-14T08:59:39;6.82;;;6.13;;
21030;SDS011;61072;47.808;7.636;2023-05-14T09:02:06;9.25;;;5.50;;
21030;SDS011;61072;47.808;7.636;2023-05-14T09:04:35;7.10;;;6.40;;
21030;SDS011;61072;47.808;7.636;2023-05-14T09:07:02;6.88;;;6.18;;
21030;SDS011;61072;47.808;7.636;2023-05-14T09:09:29;6.68;;;5.97;;
21030;SDS011;61072;47.808;7.636;2023-05-14T09:11:56;7.85;;;6.03;;
21030;SDS011;61072;47.808;7.636;2023-05-14T09:14:23;6.05;;;5.32;;
21030;SDS011;61072;47.808;7.636;2023-05-14T09:16:50;6.95;;;6.32;;
21030;SDS011;61072;47.808;7.636;2023-05-14T09:19:17;6.75;;;6.15;;
21030;SDS011;61072;47.808;7.636;2023-05-14T09:21:46;8.02;;;6.60;;
21030;SDS011;61072;47.808;7.636;2023-05-14T09:24:20;7.25;;;5.80;;
21030;SDS011;61072;47.808;7.636;2023-05-14T09:26:49;6.57;;;5.85;;
21030;SDS011;61072;47.808;7.636;2023-05-14T09:29:20;6.50;;;5.90;;
21030;SDS011;61072;47.808;7.636;2023-05-14T09:31:48;6.05;;;5.03;;
21030;SDS011;61072;47.808;7.636;2023-05-14T09:34:24;5.30;;;4.85;;
21030;SDS011;61072;47.808;7.636;2023-05-14T09:36:53;5.65;;;5.13;;
21030;SDS011;61072;47.808;7.636;2023-05-14T09:39:24;5.88;;;5.10;;
21030;SDS011;61072;47.808;7.636;2023-05-14T09:41:51;6.38;;;5.18;;
21030;SDS011;61072;47.808;7.636;2023-05-14T09:44:19;6.07;;;5.30;;
21030;SDS011;61072;47.808;7.636;2023-05-14T09:46:47;6.55;;;5.88;;
21030;SDS011;61072;47.808;7.636;2023-05-14T09:49:14;5.93;;;5.15;;
21030;SDS011;61072;47.808;7.636;2023-05-14T09:51:41;7.57;;;6.25;;
21030;SDS011;61072;47.808;7.636;2023-05-14T09:54:08;6.07;;;5.47;;
21030;SDS011;61072;47.808;7.636;2023-05-14T09:56:36;7.13;;;5.70;;
21030;SDS011;61072;47.808;7.636;2023-05-14T09:59:04;6.60;;;6.00;;
21030;SDS011;61072;47.808;7.636;2023-05-14T10:01:31;7.80;;;6.35;;
21030;SDS011;61072;47.808;7.636;2023-05-14T10:03:58;7.22;;;5.85;;
21030;SDS011;61072;47.808;7.636;2023-05-14T10:06:26;6.30;;;5.70;;
21030;SDS011;61072;47.808;7.636;2023-05-14T10:08:56;7.05;;;5.93;;
21030;SDS011;61072;47.808;7.636;2023-05-14T10:11:27;5.90;;;5.35;;
21030;SDS011;61072;47.808;7.636;2023-05-14T10:14:08;6.75;;;6.05;;
21030;SDS011;61072;47.808;7.636;2023-05-14T10:16:47;8.35;;;5.75;;
21030;SDS011;61072;47.808;7.636;2023-05-14T10:19:16;6.55;;;5.60;;
21030;SDS011;61072;47.808;7.636;2023-05-14T10:21:56;5.43;;;4.80;;
21030;SDS011;61072;47.808;7.636;2023-05-14T10:24:29;6.05;;;4.75;;
21030;SDS011;61072;47.808;7.636;2023-05-14T10:26:56;5.80;;;4.18;;
21030;SDS011;61072;47.808;7.636;2023-05-14T10:29:33;5.88;;;4.47;;
21030;SDS011;61072;47.808;7.636;2023-05-14T10:32:03;4.93;;;4.50;;
21030;SDS011;61072;47.808;7.636;2023-05-14T10:37:15;3.97;;;3.58;;
21030;SDS011;61072;47.808;7.636;2023-05-14T10:39:44;4.88;;;3.45;;
21030;SDS011;61072;47.808;7.636;2023-05-14T10:42:11;4.55;;;3.63;;
21030;SDS011;61072;47.808;7.636;2023-05-14T10:44:55;4.07;;;3.38;;
21030;SDS011;61072;47.808;7.636;2023-05-14T10:47:27;3.80;;;3.42;;
21030;SDS011;61072;47.808;7.636;2023-05-14T10:49:55;3.53;;;3.22;;
21030;SDS011;61072;47.808;7.636;2023-05-14T10:52:27;5.13;;;3.70;;
21030;SDS011;61072;47.808;7.636;2023-05-14T10:54:55;4.15;;;3.72;;
21030;SDS011;61072;47.808;7.636;2023-05-14T10:57:33;4.47;;;3.40;;
21030;SDS011;61072;47.808;7.636;2023-05-14T11:00:01;7.65;;;3.10;;
21030;SDS011;61072;47.808;7.636;2023-05-14T11:02:30;3.63;;;3.33;;
21030;SDS011;61072;47.808;7.636;2023-05-14T11:04:59;3.60;;;3.10;;
21030;SDS011;61072;47.808;7.636;2023-05-14T11:07:34;4.25;;;3.53;;
21030;SDS011;61072;47.808;7.636;2023-05-14T11:12:40;4.28;;;3.50;;
21030;SDS011;61072;47.808;7.636;2023-05-14T11:15:09;5.13;;;3.60;;
21030;SDS011;61072;47.808;7.636;2023-05-14T11:17:39;4.07;;;3.67;;
21030;SDS011;61072;47.808;7.636;2023-05-14T11:20:07;4.47;;;2.72;;
21030;SDS011;61072;47.808;7.636;2023-05-14T11:22:35;3.97;;;3.40;;
21030;SDS011;61072;47.808;7.636;2023-05-14T11:25:02;3.65;;;3.10;;
21030;SDS011;61072;47.808;7.636;2023-05-14T11:27:30;2.58;;;2.38;;
21030;SDS011;61072;47.808;7.636;2023-05-14T11:29:59;2.60;;;2.40;;
21030;SDS011;61072;47.808;7.636;2023-05-14T11:32:30;2.50;;;2.30;;
21030;SDS011;61072;47.808;7.636;2023-05-14T11:34:57;2.13;;;1.77;;
21030;SDS011;61072;47.808;7.636;2023-05-14T11:37:24;2.65;;;2.45;;
21030;SDS011;61072;47.808;7.636;2023-05-14T11:39:52;4.28;;;2.83;;
21030;SDS011;61072;47.808;7.636;2023-05-14T11:42:20;3.65;;;2.05;;
21030;SDS011;61072;47.808;7.636;2023-05-14T11:44:48;5.22;;;2.40;;
21030;SDS011;61072;47.808;7.636;2023-05-14T11:47:18;2.37;;;1.90;;
21030;SDS011;61072;47.808;7.636;2023-05-14T11:49:46;2.40;;;2.20;;
21030;SDS011;61072;47.808;7.636;2023-05-14T11:52:14;3.88;;;2.42;;
21030;SDS011;61072;47.808;7.636;2023-05-14T11:54:42;2.60;;;2.40;;
21030;SDS011;61072;47.808;7.636;2023-05-14T11:57:13;2.38;;;2.17;;
21030;SDS011;61072;47.808;7.636;2023-05-14T11:59:42;2.95;;;2.65;;
21030;SDS011;61072;47.808;7.636;2023-05-14T12:02:10;2.95;;;2.70;;
21030;SDS011;61072;47.808;7.636;2023-05-14T12:04:38;3.17;;;2.63;;
21030;SDS011;61072;47.808;7.636;2023-05-14T12:07:12;2.97;;;2.15;;
21030;SDS011;61072;47.808;7.636;2023-05-14T12:09:42;2.40;;;2.20;;
21030;SDS011;61072;47.808;7.636;2023-05-14T12:12:17;2.92;;;2.30;;
21030;SDS011;61072;47.808;7.636;2023-05-14T12:14:45;2.30;;;2.10;;
21030;SDS011;61072;47.808;7.636;2023-05-14T12:17:13;6.88;;;2.92;;
21030;SDS011;61072;47.808;7.636;2023-05-14T12:19:42;2.40;;;2.20;;
21030;SDS011;61072;47.808;7.636;2023-05-14T12:22:10;4.15;;;2.30;;
21030;SDS011;61072;47.808;7.636;2023-05-14T12:24:38;2.85;;;2.15;;
21030;SDS011;61072;47.808;7.636;2023-05-14T12:27:05;2.55;;;2.30;;
21030;SDS011;61072;47.808;7.636;2023-05-14T12:29:34;2.75;;;2.35;;
21030;SDS011;61072;47.808;7.636;2023-05-14T12:32:06;2.85;;;2.55;;
21030;SDS011;61072;47.808;7.636;2023-05-14T12:34:34;2.45;;;2.00;;
21030;SDS011;61072;47.808;7.636;2023-05-14T12:37:03;2.78;;;1.98;;
21030;SDS011;61072;47.808;7.636;2023-05-14T12:39:31;2.25;;;2.05;;
21030;SDS011;61072;47.808;7.636;2023-05-14T12:41:59;2.83;;;2.33;;
21030;SDS011;61072;47.808;7.636;2023-05-14T12:44:26;2.38;;;2.03;;
21030;SDS011;61072;47.808;7.636;2023-05-14T12:46:53;2.30;;;2.10;;
21030;SDS011;61072;47.808;7.636;2023-05-14T12:49:20;3.05;;;2.40;;
21030;SDS011;61072;47.808;7.636;2023-05-14T12:51:46;3.05;;;2.05;;
21030;SDS011;61072;47.808;7.636;2023-05-14T12:54:13;3.38;;;2.08;;
21030;SDS011;61072;47.808;7.636;2023-05-14T12:56:41;2.20;;;1.90;;
21030;SDS011;61072;47.808;7.636;2023-05-14T12:59:08;2.28;;;1.98;;
21030;SDS011;61072;47.808;7.636;2023-05-14T13:01:35;2.80;;;2.08;;
21030;SDS011;61072;47.808;7.636;2023-05-14T13:04:03;2.13;;;1.92;;
21030;SDS011;61072;47.808;7.636;2023-05-14T13:06:31;2.22;;;1.83;;
21030;SDS011;61072;47.808;7.636;2023-05-14T13:08:57;1.92;;;1.63;;
21030;SDS011;61072;47.808;7.636;2023-05-14T13:11:26;1.95;;;1.30;;
21030;SDS011;61072;47.808;7.636;2023-05-14T13:13:55;1.75;;;1.40;;
21030;SDS011;61072;47.808;7.636;2023-05-14T13:16:22;1.70;;;1.60;;
21030;SDS011;61072;47.808;7.636;2023-05-14T13:18:49;3.30;;;2.38;;
21030;SDS011;61072;47.808;7.636;2023-05-14T13:21:16;2.00;;;1.80;;
21030;SDS011;61072;47.808;7.636;2023-05-14T13:23:42;2.95;;;1.63;;
21030;SDS011;61072;47.808;7.636;2023-05-14T13:26:09;1.95;;;1.80;;
21030;SDS011;61072;47.808;7.636;2023-05-14T13:28:36;2.30;;;1.80;;
21030;SDS011;61072;47.808;7.636;2023-05-14T13:31:03;3.20;;;1.92;;
21030;SDS011;61072;47.808;7.636;2023-05-14T13:33:31;2.10;;;1.90;;
21030;SDS011;61072;47.808;7.636;2023-05-14T13:36:02;2.50;;;2.30;;
21030;SDS011;61072;47.808;7.636;2023-05-14T13:38:29;4.47;;;1.90;;
21030;SDS011;61072;47.808;7.636;2023-05-14T13:40:56;1.83;;;1.73;;
21030;SDS011;61072;47.808;7.636;2023-05-14T13:43:28;2.00;;;1.80;;
21030;SDS011;61072;47.808;7.636;2023-05-14T13:45:56;2.30;;;2.10;;
21030;SDS011;61072;47.808;7.636;2023-05-14T13:48:23;1.92;;;1.77;;
21030;SDS011;61072;47.808;7.636;2023-05-14T13:50:51;2.15;;;1.95;;
21030;SDS011;61072;47.808;7.636;2023-05-14T13:53:18;2.00;;;1.80;;
21030;SDS011;61072;47.808;7.636;2023-05-14T13:55:45;2.55;;;1.85;;
21030;SDS011;61072;47.808;7.636;2023-05-14T13:58:14;2.22;;;2.03;;
21030;SDS011;61072;47.808;7.636;2023-05-14T14:00:41;3.25;;;2.03;;
21030;SDS011;61072;47.808;7.636;2023-05-14T14:03:08;3.33;;;2.00;;
21030;SDS011;61072;47.808;7.636;2023-05-14T14:05:35;1.65;;;1.45;;
21030;SDS011;61072;47.808;7.636;2023-05-14T14:08:01;1.52;;;1.42;;
21030;SDS011;61072;47.808;7.636;2023-05-14T14:10:47;0.88;;;0.88;;
21030;SDS011;61072;47.808;7.636;2023-05-14T14:13:14;1.38;;;0.98;;
21030;SDS011;61072;47.808;7.636;2023-05-14T14:15:40;0.90;;;0.90;;
21030;SDS011;61072;47.808;7.636;2023-05-14T14:18:08;0.70;;;0.60;;
21030;SDS011;61072;47.808;7.636;2023-05-14T14:20:35;1.20;;;0.88;;
21030;SDS011;61072;47.808;7.636;2023-05-14T14:23:02;1.00;;;0.75;;
21030;SDS011;61072;47.808;7.636;2023-05-14T14:25:29;0.68;;;0.68;;
21030;SDS011;61072;47.808;7.636;2023-05-14T14:27:55;1.20;;;1.10;;
21030;SDS011;61072;47.808;7.636;2023-05-14T14:30:22;1.55;;;1.45;;
21030;SDS011;61072;47.808;7.636;2023-05-14T14:32:49;1.80;;;1.48;;
21030;SDS011;61072;47.808;7.636;2023-05-14T14:35:17;3.20;;;1.58;;
21030;SDS011;61072;47.808;7.636;2023-05-14T14:37:44;1.52;;;1.42;;
21030;SDS011;61072;47.808;7.636;2023-05-14T14:40:15;1.63;;;1.42;;
21030;SDS011;61072;47.808;7.636;2023-05-14T14:42:42;2.95;;;1.70;;
21030;SDS011;61072;47.808;7.636;2023-05-14T14:45:09;1.50;;;1.40;;
21030;SDS011;61072;47.808;7.636;2023-05-14T14:47:37;2.65;;;1.33;;
21030;SDS011;61072;47.808;7.636;2023-05-14T14:50:04;1.92;;;1.63;;
21030;SDS011;61072;47.808;7.636;2023-05-14T14:52:31;1.60;;;1.48;;
21030;SDS011;61072;47.808;7.636;2023-05-14T14:54:59;1.55;;;1.27;;
21030;SDS011;61072;47.808;7.636;2023-05-14T14:57:25;1.88;;;1.60;;
21030;SDS011;61072;47.808;7.636;2023-05-14T14:59:52;2.42;;;1.10;;
21030;SDS011;61072;47.808;7.636;2023-05-14T15:02:18;1.63;;;1.50;;
21030;SDS011;61072;47.808;7.636;2023-05-14T15:04:45;1.60;;;1.50;;